createdAt,value
2017-06-08T00:00:22.541Z,0
2017-06-08T00:01:23.261Z,0
2017-06-08T00:02:24.281Z,0
2017-06-08T00:03:25.001Z,0
2017-06-08T00:04:25.723Z,0
2017-06-08T00:05:26.448Z,0
2017-06-08T00:06:27.195Z,0
2017-06-08T00:07:28.167Z,0
2017-06-08T00:08:28.889Z,0
2017-06-08T00:09:29.631Z,0
2017-06-08T00:10:30.354Z,0
2017-06-08T00:11:31.075Z,0
2017-06-08T00:12:32.043Z,0
2017-06-08T00:13:32.766Z,0
2017-06-08T00:14:33.486Z,0
2017-06-08T00:15:34.208Z,0
2017-06-08T00:16:34.931Z,0
2017-06-08T00:17:35.905Z,0
2017-06-08T00:18:36.628Z,0
2017-06-08T00:19:37.351Z,0
2017-06-08T00:20:38.072Z,0
2017-06-08T00:21:38.792Z,0
2017-06-08T00:22:39.766Z,0
2017-06-08T00:23:40.485Z,0
2017-06-08T00:24:41.207Z,0
2017-06-08T00:25:41.928Z,0
2017-06-08T00:26:42.649Z,0
2017-06-08T00:27:43.648Z,0
2017-06-08T00:28:44.367Z,0
2017-06-08T00:29:45.086Z,0
2017-06-08T00:30:45.806Z,0
2017-06-08T00:31:46.526Z,0
2017-06-08T00:32:47.500Z,0
2017-06-08T00:33:48.221Z,0
2017-06-08T00:34:48.944Z,0
2017-06-08T00:35:49.666Z,0
2017-06-08T00:36:50.390Z,0
2017-06-08T00:37:51.365Z,0
2017-06-08T00:38:52.085Z,0
2017-06-08T00:39:52.807Z,0
2017-06-08T00:41:54.152Z,0
2017-06-08T00:42:55.121Z,0
2017-06-08T00:43:55.843Z,0
2017-06-08T00:44:56.561Z,0
2017-06-08T00:45:57.303Z,0
2017-06-08T00:46:58.020Z,0
2017-06-08T00:47:59.064Z,0
2017-06-08T00:48:59.787Z,0
2017-06-08T00:50:00.508Z,0
2017-06-08T00:51:01.228Z,0
2017-06-08T00:52:01.952Z,0
2017-06-08T00:53:02.922Z,0
2017-06-08T00:54:03.642Z,0
2017-06-08T00:55:04.359Z,0
2017-06-08T00:56:05.086Z,0
2017-06-08T00:57:05.799Z,0
2017-06-08T00:58:06.769Z,0
2017-06-08T00:59:07.514Z,0
2017-06-08T01:00:08.257Z,0
2017-06-08T01:01:08.975Z,0
2017-06-08T01:02:09.695Z,0
2017-06-08T01:03:10.667Z,0
2017-06-08T01:04:11.391Z,0
2017-06-08T01:05:12.107Z,0
2017-06-08T01:06:12.829Z,0
2017-06-08T01:07:13.547Z,0
2017-06-08T01:08:14.520Z,0
2017-06-08T01:09:15.257Z,0
2017-06-08T01:10:16.007Z,0
2017-06-08T01:11:16.725Z,0
2017-06-08T01:12:17.444Z,0
2017-06-08T01:13:18.423Z,0
2017-06-08T01:14:19.142Z,0
2017-06-08T01:15:19.862Z,0
2017-06-08T01:16:20.581Z,0
2017-06-08T01:17:21.301Z,0
2017-06-08T01:18:22.270Z,0
2017-06-08T01:19:22.994Z,0
2017-06-08T01:20:23.738Z,0
2017-06-08T01:21:24.460Z,0
2017-06-08T01:22:25.179Z,0
2017-06-08T01:23:26.150Z,0
2017-06-08T01:24:26.872Z,0
2017-06-08T01:25:27.589Z,0
2017-06-08T01:26:28.311Z,0
2017-06-08T01:27:29.034Z,0
2017-06-08T01:28:30.003Z,0
2017-06-08T01:29:30.725Z,0
2017-06-08T01:30:31.444Z,0
2017-06-08T01:31:32.164Z,0
2017-06-08T01:32:32.885Z,0
2017-06-08T01:33:33.860Z,0
2017-06-08T01:34:34.583Z,0
2017-06-08T01:35:35.302Z,0
2017-06-08T01:36:36.024Z,0
2017-06-08T01:37:36.747Z,0
2017-06-08T01:38:37.719Z,0
2017-06-08T01:39:38.459Z,0
2017-06-08T01:40:39.178Z,0
2017-06-08T01:41:39.897Z,0
2017-06-08T01:42:40.640Z,0
2017-06-08T01:43:41.610Z,0
2017-06-08T01:44:42.332Z,0
2017-06-08T01:45:43.051Z,0
2017-06-08T01:46:43.795Z,0
2017-06-08T01:47:44.517Z,0
2017-06-08T01:48:45.485Z,0
2017-06-08T01:49:46.205Z,0
2017-06-08T01:50:46.928Z,0
2017-06-08T01:51:47.647Z,0
2017-06-08T01:52:48.369Z,0
2017-06-08T01:53:49.386Z,0
2017-06-08T01:54:50.106Z,0
2017-06-08T01:55:50.827Z,0
2017-06-08T01:56:51.547Z,0
2017-06-08T01:57:52.292Z,0
2017-06-08T01:58:53.263Z,0
2017-06-08T01:59:53.984Z,0
2017-06-08T02:00:54.702Z,0
2017-06-08T02:01:55.426Z,0
2017-06-08T02:02:56.145Z,0
2017-06-08T02:03:57.115Z,0
2017-06-08T02:04:57.835Z,0
2017-06-08T02:05:58.554Z,0
2017-06-08T02:06:59.274Z,0
2017-06-08T02:07:59.997Z,0
2017-06-08T02:09:00.967Z,0
2017-06-08T02:10:01.684Z,0
2017-06-08T02:11:02.404Z,0
2017-06-08T02:12:03.126Z,0
2017-06-08T02:13:03.845Z,0
2017-06-08T02:14:04.816Z,0
2017-06-08T02:15:05.541Z,0
2017-06-08T02:16:06.260Z,0
2017-06-08T02:17:06.982Z,0
2017-06-08T02:18:07.701Z,0
2017-06-08T02:19:08.676Z,0
2017-06-08T02:20:09.397Z,0
2017-06-08T02:21:10.138Z,0
2017-06-08T02:22:10.857Z,0
2017-06-08T02:23:11.576Z,0
2017-06-08T02:24:12.547Z,0
2017-06-08T02:25:13.269Z,0
2017-06-08T02:26:13.990Z,0
2017-06-08T02:27:14.712Z,0
2017-06-08T02:28:15.433Z,0
2017-06-08T02:29:16.454Z,0
2017-06-08T02:30:17.179Z,0
2017-06-08T02:31:17.895Z,0
2017-06-08T02:32:18.615Z,0
2017-06-08T02:33:19.337Z,0
2017-06-08T02:34:20.309Z,0
2017-06-08T02:35:21.029Z,0
2017-06-08T02:36:21.748Z,0
2017-06-08T02:37:22.471Z,4
2017-06-08T02:38:23.190Z,4
2017-06-08T02:39:24.164Z,4
2017-06-08T02:40:24.883Z,0
2017-06-08T02:41:25.602Z,0
2017-06-08T02:42:26.322Z,4
2017-06-08T02:43:27.041Z,4
2017-06-08T02:44:28.012Z,4
2017-06-08T02:45:28.732Z,4
2017-06-08T02:46:29.452Z,4
2017-06-08T02:47:30.172Z,8
2017-06-08T02:48:30.914Z,8
2017-06-08T02:49:31.888Z,8
2017-06-08T02:50:32.608Z,8
2017-06-08T02:51:33.332Z,12
2017-06-08T02:52:34.077Z,12
2017-06-08T02:53:34.799Z,16
2017-06-08T02:54:35.772Z,12
2017-06-08T02:55:36.494Z,12
2017-06-08T02:56:37.218Z,16
2017-06-08T02:57:37.937Z,20
2017-06-08T02:58:38.657Z,24
2017-06-08T02:59:39.628Z,24
2017-06-08T03:00:40.347Z,24
2017-06-08T03:01:41.073Z,28
2017-06-08T03:02:41.795Z,28
2017-06-08T03:03:42.519Z,28
2017-06-08T03:04:43.489Z,32
2017-06-08T03:05:44.211Z,36
2017-06-08T03:06:44.936Z,40
2017-06-08T03:07:45.657Z,48
2017-06-08T03:08:46.379Z,52
2017-06-08T03:09:47.351Z,52
2017-06-08T03:10:48.076Z,60
2017-06-08T03:11:48.798Z,64
2017-06-08T03:12:49.521Z,72
2017-06-08T03:13:50.242Z,76
2017-06-08T03:14:51.215Z,84
2017-06-08T03:15:51.934Z,88
2017-06-08T03:16:52.661Z,92
2017-06-08T03:17:53.380Z,100
2017-06-08T03:18:54.103Z,108
2017-06-08T03:19:55.077Z,112
2017-06-08T03:20:55.799Z,116
2017-06-08T03:21:56.521Z,128
2017-06-08T03:22:57.246Z,136
2017-06-08T03:23:57.966Z,144
2017-06-08T03:24:58.938Z,152
2017-06-08T03:25:59.661Z,152
2017-06-08T03:27:00.383Z,156
2017-06-08T03:28:01.107Z,156
2017-06-08T03:29:01.833Z,160
2017-06-08T03:30:02.857Z,164
2017-06-08T03:31:03.580Z,172
2017-06-08T03:32:04.306Z,184
2017-06-08T03:33:05.029Z,192
2017-06-08T03:34:05.755Z,208
2017-06-08T03:35:06.725Z,224
2017-06-08T03:36:07.448Z,252
2017-06-08T03:37:08.172Z,276
2017-06-08T03:38:08.896Z,300
2017-06-08T03:39:09.623Z,312
2017-06-08T03:40:10.598Z,332
2017-06-08T03:41:11.318Z,356
2017-06-08T03:42:12.045Z,380
2017-06-08T03:43:12.766Z,412
2017-06-08T03:44:13.494Z,444
2017-06-08T03:45:14.467Z,464
2017-06-08T03:46:15.198Z,480
2017-06-08T03:47:15.917Z,484
2017-06-08T03:48:16.640Z,484
2017-06-08T03:49:17.362Z,496
2017-06-08T03:50:18.340Z,500
2017-06-08T03:51:19.063Z,512
2017-06-08T03:52:19.787Z,524
2017-06-08T03:53:20.510Z,520
2017-06-08T03:54:21.238Z,508
2017-06-08T03:55:22.217Z,492
2017-06-08T03:56:22.935Z,496
2017-06-08T03:57:23.658Z,484
2017-06-08T03:58:24.384Z,484
2017-06-08T03:59:25.110Z,508
2017-06-08T04:00:26.106Z,520
2017-06-08T04:01:26.830Z,524
2017-06-08T04:02:27.555Z,496
2017-06-08T04:03:28.283Z,472
2017-06-08T04:04:29.007Z,472
2017-06-08T04:05:29.981Z,480
2017-06-08T04:06:30.703Z,512
2017-06-08T04:07:31.427Z,564
2017-06-08T04:08:32.154Z,592
2017-06-08T04:09:32.879Z,596
2017-06-08T04:10:33.881Z,608
2017-06-08T04:11:34.602Z,632
2017-06-08T04:12:35.326Z,632
2017-06-08T04:13:36.052Z,636
2017-06-08T04:14:36.775Z,652
2017-06-08T04:15:37.748Z,668
2017-06-08T04:16:38.471Z,696
2017-06-08T04:17:39.197Z,708
2017-06-08T04:18:39.921Z,696
2017-06-08T04:19:40.678Z,676
2017-06-08T04:20:41.647Z,684
2017-06-08T04:21:42.369Z,696
2017-06-08T04:22:43.095Z,692
2017-06-08T04:23:43.820Z,688
2017-06-08T04:24:44.541Z,692
2017-06-08T04:25:45.518Z,692
2017-06-08T04:26:46.243Z,704
2017-06-08T04:27:46.969Z,700
2017-06-08T04:28:47.691Z,684
2017-06-08T04:29:48.413Z,676
2017-06-08T04:30:49.392Z,652
2017-06-08T04:31:50.114Z,616
2017-06-08T04:32:50.837Z,592
2017-06-08T04:33:51.563Z,580
2017-06-08T04:34:52.284Z,568
2017-06-08T04:35:53.261Z,556
2017-06-08T04:36:53.982Z,560
2017-06-08T04:37:54.706Z,556
2017-06-08T04:38:55.431Z,568
2017-06-08T04:39:56.156Z,568
2017-06-08T04:40:57.128Z,556
2017-06-08T04:41:57.853Z,544
2017-06-08T04:42:58.577Z,540
2017-06-08T04:43:59.299Z,532
2017-06-08T04:45:00.021Z,516
2017-06-08T04:46:00.996Z,492
2017-06-08T04:47:01.721Z,472
2017-06-08T04:48:02.442Z,448
2017-06-08T04:49:03.170Z,432
2017-06-08T04:50:03.895Z,420
2017-06-08T04:51:04.868Z,420
2017-06-08T04:52:05.591Z,428
2017-06-08T04:53:06.316Z,444
2017-06-08T04:54:07.040Z,464
2017-06-08T04:55:07.763Z,484
2017-06-08T04:56:08.735Z,492
2017-06-08T04:57:09.459Z,508
2017-06-08T04:58:10.184Z,524
2017-06-08T04:59:10.909Z,556
2017-06-08T05:00:11.629Z,588
2017-06-08T05:01:12.605Z,592
2017-06-08T05:02:13.329Z,584
2017-06-08T05:03:14.057Z,644
2017-06-08T05:04:14.778Z,748
2017-06-08T05:05:15.504Z,788
2017-06-08T05:06:16.478Z,844
2017-06-08T05:07:17.202Z,864
2017-06-08T05:08:17.925Z,844
2017-06-08T05:09:18.653Z,812
2017-06-08T05:10:19.373Z,776
2017-06-08T05:11:20.399Z,752
2017-06-08T05:12:21.126Z,736
2017-06-08T05:13:21.849Z,716
2017-06-08T05:14:22.573Z,696
2017-06-08T05:15:23.294Z,700
2017-06-08T05:16:24.271Z,756
2017-06-08T05:17:24.994Z,820
2017-06-08T05:18:25.717Z,832
2017-06-08T05:19:26.445Z,960
2017-06-08T05:20:27.168Z,1088
2017-06-08T05:21:28.140Z,1184
2017-06-08T05:22:28.867Z,1276
2017-06-08T05:23:29.617Z,1376
2017-06-08T05:24:30.341Z,1372
2017-06-08T05:25:31.070Z,1436
2017-06-08T05:26:32.043Z,1540
2017-06-08T05:27:32.769Z,1564
2017-06-08T05:28:33.493Z,1528
2017-06-08T05:29:34.217Z,1480
2017-06-08T05:30:34.943Z,1516
2017-06-08T05:31:35.917Z,1584
2017-06-08T05:32:36.644Z,1680
2017-06-08T05:33:37.368Z,1776
2017-06-08T05:34:38.094Z,1792
2017-06-08T05:35:38.841Z,1800
2017-06-08T05:36:39.819Z,1872
2017-06-08T05:37:40.542Z,2000
2017-06-08T05:38:41.271Z,2256
2017-06-08T05:39:41.991Z,2560
2017-06-08T05:40:42.716Z,2724
2017-06-08T05:41:43.690Z,2816
2017-06-08T05:42:44.418Z,2984
2017-06-08T05:43:45.144Z,3256
2017-06-08T05:44:45.873Z,3456
2017-06-08T05:45:46.603Z,3408
2017-06-08T05:46:47.581Z,3400
2017-06-08T05:47:48.306Z,3476
2017-06-08T05:48:49.035Z,3480
2017-06-08T05:49:49.762Z,3356
2017-06-08T05:50:50.488Z,3380
2017-06-08T05:51:51.464Z,3564
2017-06-08T05:52:52.194Z,3680
2017-06-08T05:53:52.922Z,3744
2017-06-08T05:54:53.670Z,3816
2017-06-08T05:55:54.420Z,3836
2017-06-08T05:56:55.397Z,3804
2017-06-08T05:57:56.127Z,3828
2017-06-08T05:58:56.877Z,3720
2017-06-08T05:59:57.605Z,3956
2017-06-08T06:00:58.334Z,4160
2017-06-08T06:01:59.310Z,4424
2017-06-08T06:03:00.039Z,4916
2017-06-08T06:04:00.788Z,5696
2017-06-08T06:05:01.517Z,6552
2017-06-08T06:06:02.246Z,7528
2017-06-08T06:07:03.224Z,8236
2017-06-08T06:08:03.948Z,8488
2017-06-08T06:09:04.676Z,8212
2017-06-08T06:10:05.404Z,7856
2017-06-08T06:11:06.134Z,7592
2017-06-08T06:12:07.110Z,7196
2017-06-08T06:13:07.840Z,6792
2017-06-08T06:14:08.565Z,6500
2017-06-08T06:15:09.294Z,6364
2017-06-08T06:16:10.023Z,6380
2017-06-08T06:17:10.999Z,6864
2017-06-08T06:18:11.727Z,7776
2017-06-08T06:19:12.457Z,8744
2017-06-08T06:20:13.189Z,10048
2017-06-08T06:21:13.917Z,10980
2017-06-08T06:22:14.899Z,10296
2017-06-08T06:23:15.648Z,8400
2017-06-08T06:24:16.378Z,6860
2017-06-08T06:25:17.108Z,6204
2017-06-08T06:26:17.837Z,6100
2017-06-08T06:27:18.815Z,6068
2017-06-08T06:28:19.545Z,6160
2017-06-08T06:29:20.272Z,6344
2017-06-08T06:30:21.003Z,6388
2017-06-08T06:31:21.733Z,6376
2017-06-08T06:32:22.759Z,6776
2017-06-08T06:33:23.487Z,7648
2017-06-08T06:34:24.214Z,8800
2017-06-08T06:35:24.945Z,9316
2017-06-08T06:36:25.673Z,10900
2017-06-08T06:37:26.652Z,12516
2017-06-08T06:38:27.385Z,12092
2017-06-08T06:39:28.118Z,9388
2017-06-08T06:40:28.846Z,8396
2017-06-08T06:41:29.578Z,7904
2017-06-08T06:42:30.559Z,7172
2017-06-08T06:43:31.287Z,6824
2017-06-08T06:44:32.016Z,7248
2017-06-08T06:45:32.749Z,8096
2017-06-08T06:46:33.478Z,8704
2017-06-08T06:47:34.455Z,8592
2017-06-08T06:48:35.189Z,8008
2017-06-08T06:49:35.918Z,7540
2017-06-08T06:50:36.646Z,7080
2017-06-08T06:51:37.376Z,6480
2017-06-08T06:52:38.354Z,6136
2017-06-08T06:53:39.083Z,6028
2017-06-08T06:54:39.814Z,6052
2017-06-08T06:55:40.545Z,6060
2017-06-08T06:56:41.275Z,5976
2017-06-08T06:57:42.251Z,5720
2017-06-08T06:58:42.984Z,5660
2017-06-08T06:59:43.712Z,5728
2017-06-08T07:00:44.441Z,5832
2017-06-08T07:01:45.170Z,5960
2017-06-08T07:02:46.149Z,6108
2017-06-08T07:03:46.879Z,6288
2017-06-08T07:04:47.630Z,6536
2017-06-08T07:05:48.361Z,6712
2017-06-08T07:06:49.094Z,6696
2017-06-08T07:07:50.072Z,6504
2017-06-08T07:08:50.799Z,6444
2017-06-08T07:09:51.527Z,6744
2017-06-08T07:10:52.255Z,7388
2017-06-08T07:11:52.987Z,7892
2017-06-08T07:12:53.966Z,8016
2017-06-08T07:13:54.695Z,7712
2017-06-08T07:14:55.428Z,7552
2017-06-08T07:15:56.179Z,7228
2017-06-08T07:16:56.931Z,6692
2017-06-08T07:17:57.914Z,6328
2017-06-08T07:18:58.643Z,6172
2017-06-08T07:19:59.369Z,6064
2017-06-08T07:21:00.117Z,5904
2017-06-08T07:22:00.848Z,6028
2017-06-08T07:23:01.828Z,6532
2017-06-08T07:24:02.557Z,7312
2017-06-08T07:25:03.288Z,8396
2017-06-08T07:26:04.049Z,9268
2017-06-08T07:27:04.775Z,9512
2017-06-08T07:28:05.758Z,9488
2017-06-08T07:29:06.488Z,9480
2017-06-08T07:30:07.216Z,8860
2017-06-08T07:31:07.946Z,8276
2017-06-08T07:32:08.673Z,8092
2017-06-08T07:33:09.705Z,8224
2017-06-08T07:34:10.433Z,8196
2017-06-08T07:35:11.164Z,8020
2017-06-08T07:36:11.897Z,7832
2017-06-08T07:37:12.625Z,7672
2017-06-08T07:38:13.630Z,7780
2017-06-08T07:39:14.358Z,7680
2017-06-08T07:40:15.088Z,7092
2017-06-08T07:41:15.817Z,7000
2017-06-08T07:42:16.548Z,7504
2017-06-08T07:43:17.527Z,7972
2017-06-08T07:44:18.258Z,8780
2017-06-08T07:45:18.983Z,9560
2017-06-08T07:46:19.715Z,9756
2017-06-08T07:47:20.447Z,9844
2017-06-08T07:48:21.448Z,9420
2017-06-08T07:49:22.202Z,8696
2017-06-08T07:50:22.954Z,7772
2017-06-08T07:51:23.689Z,6936
2017-06-08T07:52:24.420Z,6320
2017-06-08T07:53:25.396Z,6188
2017-06-08T07:54:26.128Z,6280
2017-06-08T07:55:26.860Z,7288
2017-06-08T07:56:27.587Z,7640
2017-06-08T07:57:28.316Z,7328
2017-06-08T07:58:29.298Z,6852
2017-06-08T07:59:30.029Z,6576
2017-06-08T08:00:30.760Z,6512
2017-06-08T08:01:31.489Z,6948
2017-06-08T08:02:32.216Z,7780
2017-06-08T08:03:33.198Z,8908
2017-06-08T08:04:33.927Z,9780
2017-06-08T08:05:34.657Z,10120
2017-06-08T08:06:35.386Z,10400
2017-06-08T08:07:36.137Z,10656
2017-06-08T08:08:37.120Z,10264
2017-06-08T08:09:37.849Z,9916
2017-06-08T08:10:38.581Z,9720
2017-06-08T08:11:39.314Z,8888
2017-06-08T08:12:40.045Z,8092
2017-06-08T08:13:41.025Z,7880
2017-06-08T08:14:41.753Z,8916
2017-06-08T08:15:42.490Z,10260
2017-06-08T08:16:43.220Z,10872
2017-06-08T08:17:43.956Z,11288
2017-06-08T08:18:44.935Z,11524
2017-06-08T08:19:45.663Z,12084
2017-06-08T08:20:46.399Z,13128
2017-06-08T08:21:47.130Z,13100
2017-06-08T08:22:47.858Z,12768
2017-06-08T08:23:48.891Z,12712
2017-06-08T08:24:49.625Z,13196
2017-06-08T08:25:50.353Z,14944
2017-06-08T08:26:51.086Z,16128
2017-06-08T08:27:51.820Z,15212
2017-06-08T08:28:52.801Z,15760
2017-06-08T08:29:53.536Z,18592
2017-06-08T08:30:54.295Z,20608
2017-06-08T08:31:55.024Z,20448
2017-06-08T08:32:55.761Z,17792
2017-06-08T08:33:56.742Z,18976
2017-06-08T08:34:57.472Z,24736
2017-06-08T08:35:58.206Z,36800
2017-06-08T08:36:58.940Z,28032
2017-06-08T08:37:59.672Z,23424
2017-06-08T08:39:00.658Z,19712
2017-06-08T08:40:01.394Z,19424
2017-06-08T08:41:02.126Z,21376
2017-06-08T08:42:02.861Z,24544
2017-06-08T08:43:03.595Z,32064
2017-06-08T08:44:04.583Z,37568
2017-06-08T08:45:05.314Z,31744
2017-06-08T08:46:06.052Z,30464
2017-06-08T08:47:06.788Z,31744
2017-06-08T08:48:07.525Z,29376
2017-06-08T08:49:08.512Z,23648
2017-06-08T08:50:09.277Z,21024
2017-06-08T08:51:09.986Z,20608
2017-06-08T08:52:10.720Z,20128
2017-06-08T08:53:11.454Z,21792
2017-06-08T08:54:12.438Z,28864
2017-06-08T08:55:13.172Z,32640
2017-06-08T08:56:13.907Z,36000
2017-06-08T08:57:14.644Z,29984
2017-06-08T08:58:15.378Z,23360
2017-06-08T08:59:16.362Z,23008
2017-06-08T09:00:17.100Z,24960
2017-06-08T09:01:17.838Z,26816
2017-06-08T09:02:18.593Z,29504
2017-06-08T09:03:19.327Z,33568
2017-06-08T09:04:20.315Z,36064
2017-06-08T09:05:21.050Z,33440
2017-06-08T09:06:21.785Z,29600
2017-06-08T09:07:22.523Z,25728
2017-06-08T09:08:23.262Z,26784
2017-06-08T09:09:24.250Z,28448
2017-06-08T09:10:24.985Z,29504
2017-06-08T09:11:25.724Z,27520
2017-06-08T09:12:26.460Z,27136
2017-06-08T09:13:27.196Z,23712
2017-06-08T09:14:28.186Z,23456
2017-06-08T09:15:28.919Z,26176
2017-06-08T09:16:29.655Z,27648
2017-06-08T09:17:30.389Z,26304
2017-06-08T09:18:31.130Z,25408
2017-06-08T09:19:32.116Z,27168
2017-06-08T09:20:32.852Z,30592
2017-06-08T09:21:33.591Z,33312
2017-06-08T09:22:34.328Z,38272
2017-06-08T09:23:35.072Z,37344
2017-06-08T09:24:36.060Z,56544
2017-06-08T09:25:36.799Z,63840
2017-06-08T09:26:37.545Z,62112
2017-06-08T09:27:38.281Z,44416
2017-06-08T09:28:39.018Z,63872
2017-06-08T09:29:40.013Z,64480
2017-06-08T09:30:40.756Z,65440
2017-06-08T09:31:41.526Z,49376
2017-06-08T09:32:42.268Z,34848
2017-06-08T09:33:43.014Z,38304
2017-06-08T09:34:44.056Z,36672
2017-06-08T09:35:44.821Z,38496
2017-06-08T09:36:45.565Z,54848
2017-06-08T09:37:46.335Z,55744
2017-06-08T09:38:47.078Z,33856
2017-06-08T09:39:48.074Z,32960
2017-06-08T09:40:48.811Z,31904
2017-06-08T09:41:49.555Z,29152
2017-06-08T09:42:50.299Z,44320
2017-06-08T09:43:51.041Z,58464
2017-06-08T09:44:52.033Z,52832
2017-06-08T09:45:52.800Z,55712
2017-06-08T09:46:53.546Z,50880
2017-06-08T09:47:54.289Z,45888
2017-06-08T09:48:55.033Z,33536
2017-06-08T09:49:56.029Z,30528
2017-06-08T09:50:56.773Z,24896
2017-06-08T09:51:57.512Z,25024
2017-06-08T09:52:58.259Z,27104
2017-06-08T09:53:59.002Z,45696
2017-06-08T09:54:59.996Z,33568
2017-06-08T09:56:00.736Z,67360
2017-06-08T09:57:01.479Z,64704
2017-06-08T09:58:02.222Z,56576
2017-06-08T09:59:02.960Z,65792
2017-06-08T10:00:04.001Z,63744
2017-06-08T10:01:04.742Z,66432
2017-06-08T10:02:05.485Z,67648
2017-06-08T10:03:06.251Z,66688
2017-06-08T10:04:06.993Z,62560
2017-06-08T10:05:07.983Z,62976
2017-06-08T10:06:08.725Z,63840
2017-06-08T10:07:09.516Z,58400
2017-06-08T10:08:10.254Z,56448
2017-06-08T10:09:11.016Z,61984
2017-06-08T10:10:12.009Z,56544
2017-06-08T10:11:12.750Z,52320
2017-06-08T10:12:13.494Z,52960
2017-06-08T10:13:14.289Z,51808
2017-06-08T10:14:15.035Z,49024
2017-06-08T10:15:16.123Z,37120
2017-06-08T10:16:16.864Z,46816
2017-06-08T10:17:17.607Z,41152
2017-06-08T10:18:18.353Z,39072
2017-06-08T10:19:19.088Z,39392
2017-06-08T10:20:20.081Z,37824
2017-06-08T10:21:20.819Z,38080
2017-06-08T10:22:21.557Z,35616
2017-06-08T10:23:22.415Z,40448
2017-06-08T10:24:23.156Z,38144
2017-06-08T10:25:24.199Z,38656
2017-06-08T10:26:24.940Z,39968
2017-06-08T10:27:25.680Z,40032
2017-06-08T10:28:26.422Z,36576
2017-06-08T10:29:27.163Z,32032
2017-06-08T10:30:28.153Z,31264
2017-06-08T10:31:28.894Z,31712
2017-06-08T10:32:29.633Z,32928
2017-06-08T10:33:30.372Z,32864
2017-06-08T10:34:31.112Z,34080
2017-06-08T10:35:32.105Z,34368
2017-06-08T10:36:32.845Z,35200
2017-06-08T10:37:33.579Z,38464
2017-06-08T10:38:34.318Z,38208
2017-06-08T10:39:35.061Z,50496
2017-06-08T10:40:36.054Z,54944
2017-06-08T10:41:36.795Z,57536
2017-06-08T10:42:37.544Z,24000
2017-06-08T10:43:38.286Z,60128
2017-06-08T10:44:39.069Z,30752
2017-06-08T10:45:40.172Z,56448
2017-06-08T10:46:40.913Z,51232
2017-06-08T10:47:41.653Z,50112
2017-06-08T10:48:42.394Z,51680
2017-06-08T10:49:43.135Z,44288
2017-06-08T10:50:44.127Z,39840
2017-06-08T10:51:44.867Z,47968
2017-06-08T10:52:45.607Z,31936
2017-06-08T10:53:46.345Z,18624
2017-06-08T10:54:47.087Z,16064
2017-06-08T10:55:48.080Z,14312
2017-06-08T10:56:48.824Z,14084
2017-06-08T10:57:49.565Z,13648
2017-06-08T10:58:50.306Z,13444
2017-06-08T10:59:51.049Z,13344
2017-06-08T11:00:52.051Z,13064
2017-06-08T11:01:52.794Z,13284
2017-06-08T11:02:53.538Z,13664
2017-06-08T11:03:54.301Z,13816
2017-06-08T11:04:55.043Z,14852
2017-06-08T11:05:56.034Z,15728
2017-06-08T11:06:56.774Z,17440
2017-06-08T11:07:57.560Z,18464
2017-06-08T11:08:58.294Z,23264
2017-06-08T11:09:59.033Z,32416
2017-06-08T11:11:00.047Z,39552
2017-06-08T11:12:00.786Z,34688
2017-06-08T11:13:01.529Z,37056
2017-06-08T11:14:02.270Z,35232
2017-06-08T11:15:03.020Z,26784
2017-06-08T11:16:04.009Z,19744
2017-06-08T11:17:04.760Z,16544
2017-06-08T11:18:05.497Z,14736
2017-06-08T11:19:06.239Z,13660
2017-06-08T11:20:06.978Z,13192
2017-06-08T11:21:07.964Z,12788
2017-06-08T11:22:08.734Z,12752
2017-06-08T11:23:09.472Z,12916
2017-06-08T11:24:10.209Z,13392
2017-06-08T11:25:11.000Z,14312
2017-06-08T11:26:11.988Z,15584
2017-06-08T11:27:12.724Z,17536
2017-06-08T11:28:13.460Z,20704
2017-06-08T11:29:14.193Z,19008
2017-06-08T11:30:14.928Z,18048
2017-06-08T11:31:15.968Z,18080
2017-06-08T11:32:16.701Z,15232
2017-06-08T11:33:17.459Z,13796
2017-06-08T11:34:18.195Z,12912
2017-06-08T11:35:18.930Z,12924
2017-06-08T11:36:19.917Z,13500
2017-06-08T11:37:20.680Z,14348
2017-06-08T11:38:21.441Z,14848
2017-06-08T11:39:22.177Z,14848
2017-06-08T11:40:22.913Z,13980
2017-06-08T11:41:23.898Z,13036
2017-06-08T11:42:24.635Z,12948
2017-06-08T11:43:25.367Z,13548
2017-06-08T11:44:26.102Z,16036
2017-06-08T11:45:26.837Z,15624
2017-06-08T11:46:27.825Z,16640
2017-06-08T11:47:28.559Z,13580
2017-06-08T11:48:29.294Z,12220
2017-06-08T11:49:30.029Z,11060
2017-06-08T11:50:30.769Z,10248
2017-06-08T11:51:31.752Z,9956
2017-06-08T11:52:32.487Z,10176
2017-06-08T11:53:33.220Z,10428
2017-06-08T11:54:33.956Z,11492
2017-06-08T11:55:34.691Z,12552
2017-06-08T11:56:35.677Z,13520
2017-06-08T11:57:36.413Z,14408
2017-06-08T11:58:37.146Z,15144
2017-06-08T11:59:37.882Z,15840
2017-06-08T12:00:38.617Z,17472
2017-06-08T12:01:39.651Z,17568
2017-06-08T12:02:40.382Z,17472
2017-06-08T12:03:41.117Z,18208
2017-06-08T12:04:41.893Z,16896
2017-06-08T12:05:42.630Z,17408
2017-06-08T12:06:43.617Z,15868
2017-06-08T12:07:44.352Z,15168
2017-06-08T12:08:45.085Z,15396
2017-06-08T12:09:45.823Z,17088
2017-06-08T12:10:46.557Z,19744
2017-06-08T12:11:47.539Z,16960
2017-06-08T12:12:48.274Z,14320
2017-06-08T12:13:49.035Z,12656
2017-06-08T12:14:49.771Z,11792
2017-06-08T12:15:50.509Z,11564
2017-06-08T12:16:51.494Z,12136
2017-06-08T12:17:52.231Z,13456
2017-06-08T12:18:52.991Z,15424
2017-06-08T12:19:53.726Z,18016
2017-06-08T12:20:54.484Z,20032
2017-06-08T12:21:55.468Z,21120
2017-06-08T12:22:56.204Z,22528
2017-06-08T12:23:56.943Z,24992
2017-06-08T12:24:57.677Z,28224
2017-06-08T12:25:58.412Z,32640
2017-06-08T12:26:59.401Z,38368
2017-06-08T12:28:00.144Z,38784
2017-06-08T12:29:00.905Z,49760
2017-06-08T12:30:01.650Z,41664
2017-06-08T12:31:02.391Z,29472
2017-06-08T12:32:03.384Z,25632
2017-06-08T12:33:04.122Z,25472
2017-06-08T12:34:04.864Z,22816
2017-06-08T12:35:05.606Z,30080
2017-06-08T12:36:06.345Z,27552
2017-06-08T12:37:07.337Z,46304
2017-06-08T12:38:08.082Z,51328
2017-06-08T12:39:08.825Z,50368
2017-06-08T12:40:09.589Z,44576
2017-06-08T12:41:10.330Z,36288
2017-06-08T12:42:11.324Z,34368
2017-06-08T12:43:12.067Z,25344
2017-06-08T12:44:12.810Z,28000
2017-06-08T12:45:13.551Z,26560
2017-06-08T12:46:14.293Z,35328
2017-06-08T12:47:15.283Z,28640
2017-06-08T12:48:16.054Z,62912
2017-06-08T12:49:16.792Z,65376
2017-06-08T12:50:17.534Z,73888
2017-06-08T12:51:18.273Z,56160
2017-06-08T12:52:19.266Z,66880
2017-06-08T12:53:20.006Z,67648
2017-06-08T12:54:20.745Z,69376
2017-06-08T12:55:21.488Z,68800
2017-06-08T12:56:22.235Z,65600
2017-06-08T12:57:23.274Z,62624
2017-06-08T12:58:24.040Z,60224
2017-06-08T12:59:24.782Z,62816
2017-06-08T13:00:25.525Z,60128
2017-06-08T13:01:26.267Z,59808
2017-06-08T13:02:27.258Z,55968
2017-06-08T13:03:28.003Z,63136
2017-06-08T13:04:28.746Z,64608
2017-06-08T13:05:29.513Z,37568
2017-06-08T13:06:30.252Z,36192
2017-06-08T13:07:31.247Z,81152
2017-06-08T13:08:31.987Z,29216
2017-06-08T13:09:32.727Z,28448
2017-06-08T13:10:33.472Z,32128
2017-06-08T13:11:34.215Z,32992
2017-06-08T13:12:35.205Z,36928
2017-06-08T13:13:35.946Z,36320
2017-06-08T13:14:36.690Z,31680
2017-06-08T13:15:37.430Z,39200
2017-06-08T13:16:38.197Z,56640
2017-06-08T13:17:39.185Z,47072
2017-06-08T13:18:39.928Z,37760
2017-06-08T13:19:40.694Z,32000
2017-06-08T13:20:41.459Z,32448
2017-06-08T13:21:42.202Z,37408
2017-06-08T13:22:43.193Z,62464
2017-06-08T13:23:43.931Z,45952
2017-06-08T13:24:44.674Z,49120
2017-06-08T13:25:45.417Z,31328
2017-06-08T13:26:46.159Z,24448
2017-06-08T13:27:47.146Z,19872
2017-06-08T13:28:47.885Z,20160
2017-06-08T13:29:48.626Z,20416
2017-06-08T13:30:49.389Z,26880
2017-06-08T13:31:50.129Z,42208
2017-06-08T13:32:51.140Z,33152
2017-06-08T13:33:51.882Z,37088
2017-06-08T13:34:52.623Z,29344
2017-06-08T13:35:53.366Z,33952
2017-06-08T13:36:54.103Z,26048
2017-06-08T13:37:55.094Z,26336
2017-06-08T13:38:55.831Z,28992
2017-06-08T13:39:56.568Z,24480
2017-06-08T13:40:57.307Z,29440